Time;durP1;ratioP1;P1;durP2;ratioP2;P2;SDS_P1;SDS_P2;PMS_P1;PMS_P2;Temp;Humidity;BMP_temperature;BMP_pressure;BME280_temperature;BME280_humidity;BME280_pressure;Samples;Min_cycle;Max_cycle;Signal;HPM_P1;HPM_P2
2021/12/17 00:00:22;;;;;;;24.33;23.03;;;;;;;;;;5094818;28;20663;-75
2021/12/17 00:05:45;;;;;;;24.83;23.43;;;;;;;;;;5091190;28;20197;-75
2021/12/17 00:08:12;;;;;;;24.73;23.30;;;;;;;;;;5094539;28;20632;-73
2021/12/17 00:10:39;;;;;;;24.63;23.23;;;;;;;;;;5094929;28;20229;-74
2021/12/17 00:13:06;;;;;;;25.17;23.77;;;;;;;;;;5095722;28;20259;-74
2021/12/17 00:15:33;;;;;;;24.97;23.67;;;;;;;;;;5094503;28;20932;-75
2021/12/17 00:18:06;;;;;;;24.67;23.47;;;;;;;;;;5094476;28;20316;-75
2021/12/17 00:20:56;;;;;;;23.80;22.60;;;;;;;;;;5094813;28;20190;-74
2021/12/17 00:51:22;;;;;;;24.20;22.90;;;;;;;;;;5094265;28;20189;-74
2021/12/17 00:53:51;;;;;;;23.80;22.60;;;;;;;;;;5093687;28;20197;-74
2021/12/17 00:56:18;;;;;;;24.60;23.40;;;;;;;;;;5094063;28;20202;-74
2021/12/17 00:58:45;;;;;;;24.03;22.83;;;;;;;;;;5094017;28;20229;-75
2021/12/17 01:01:11;;;;;;;23.37;22.17;;;;;;;;;;5094026;28;20198;-74
2021/12/17 01:03:38;;;;;;;25.73;24.43;;;;;;;;;;5093633;28;20284;-74
2021/12/17 01:06:05;;;;;;;26.53;25.03;;;;;;;;;;5093572;28;20247;-73
2021/12/17 01:08:32;;;;;;;25.33;23.97;;;;;;;;;;5093533;28;20281;-73
2021/12/17 01:11:00;;;;;;;23.03;21.93;;;;;;;;;;5093483;28;20201;-74
2021/12/17 01:13:27;;;;;;;22.97;21.87;;;;;;;;;;5093393;28;20938;-73
2021/12/17 01:15:55;;;;;;;23.70;22.50;;;;;;;;;;5093435;28;20655;-75
2021/12/17 01:18:25;;;;;;;24.87;23.57;;;;;;;;;;5093067;28;20677;-73
2021/12/17 01:21:18;;;;;;;24.87;23.57;;;;;;;;;;5093480;28;20190;-75
2021/12/17 01:24:04;;;;;;;22.67;21.47;;;;;;;;;;5093894;28;20205;-75
2021/12/17 01:38:36;;;;;;;24.33;23.03;;;;;;;;;;5093281;28;20266;-74
2021/12/17 01:43:26;;;;;;;25.03;23.73;;;;;;;;;;5092834;28;20194;-74
2021/12/17 01:45:53;;;;;;;25.70;24.30;;;;;;;;;;5093105;28;20229;-73
2021/12/17 01:48:26;;;;;;;24.60;23.30;;;;;;;;;;5093127;28;20226;-74
2021/12/17 01:56:52;;;;;;;22.97;21.67;;;;;;;;;;5011471;28;20265;-74
2021/12/17 01:59:22;;;;;;;22.40;21.17;;;;;;;;;;5065743;28;20198;-74
2021/12/17 02:01:49;;;;;;;23.17;21.87;;;;;;;;;;5092924;28;20281;-74
2021/12/17 02:04:16;;;;;;;21.60;20.40;;;;;;;;;;5092532;28;20189;-74
2021/12/17 02:06:43;;;;;;;21.63;20.43;;;;;;;;;;5092803;28;20226;-75
2021/12/17 02:09:35;;;;;;;25.33;23.63;;;;;;;;;;5092696;28;20193;-75
2021/12/17 02:20:46;;;;;;;22.53;21.33;;;;;;;;;;5092691;28;20185;-73
2021/12/17 02:28:42;;;;;;;22.80;21.57;;;;;;;;;;5092336;28;20683;-76
2021/12/17 02:28:57;;;;;;;24.33;22.73;;;;;;;;;;5092608;28;20185;-74
2021/12/17 02:31:27;;;;;;;25.07;23.47;;;;;;;;;;5092344;28;20190;-74
2021/12/17 02:33:55;;;;;;;23.57;22.27;;;;;;;;;;5091866;28;20189;-73
2021/12/17 02:36:26;;;;;;;21.60;20.40;;;;;;;;;;5092138;28;20617;-73
2021/12/17 02:38:59;;;;;;;21.03;19.83;;;;;;;;;;5092355;28;20288;-74
2021/12/17 02:46:57;;;;;;;21.97;20.77;;;;;;;;;;5092753;28;20296;-75
2021/12/17 02:49:24;;;;;;;21.07;19.93;;;;;;;;;;5092274;28;20225;-74
2021/12/17 02:51:52;;;;;;;22.40;21.10;;;;;;;;;;5091951;28;20280;-73
2021/12/17 02:54:19;;;;;;;23.13;21.67;;;;;;;;;;5092272;28;20240;-75
2021/12/17 02:56:46;;;;;;;22.50;21.20;;;;;;;;;;5091914;28;20229;-73
2021/12/17 02:59:13;;;;;;;20.10;19.00;;;;;;;;;;5092116;28;20225;-74
2021/12/17 03:01:42;;;;;;;20.70;19.60;;;;;;;;;;5092185;28;20201;-74
2021/12/17 03:04:09;;;;;;;20.73;19.63;;;;;;;;;;5091826;28;20571;-74
2021/12/17 03:06:36;;;;;;;23.20;21.53;;;;;;;;;;5092153;28;20189;-73
2021/12/17 03:09:05;;;;;;;20.27;18.97;;;;;;;;;;5092171;28;20225;-73
2021/12/17 03:11:32;;;;;;;19.50;18.60;;;;;;;;;;5092089;28;20190;-74
2021/12/17 03:13:58;;;;;;;22.30;21.20;;;;;;;;;;5092070;28;20194;-74
2021/12/17 03:16:31;;;;;;;22.93;21.83;;;;;;;;;;5091999;28;20270;-74
2021/12/17 03:19:05;;;;;;;22.23;21.23;;;;;;;;;;5092008;28;20217;-73
2021/12/17 03:24:20;;;;;;;24.80;23.30;;;;;;;;;;5091826;28;20202;-74
2021/12/17 03:26:47;;;;;;;24.40;23.07;;;;;;;;;;5092049;28;20221;-74
2021/12/17 03:29:14;;;;;;;24.10;22.70;;;;;;;;;;5091695;28;20271;-73
2021/12/17 03:31:41;;;;;;;20.40;19.40;;;;;;;;;;5091567;28;20194;-74
2021/12/17 03:34:17;;;;;;;22.00;20.83;;;;;;;;;;5091426;28;20288;-74
2021/12/17 03:36:44;;;;;;;19.70;18.70;;;;;;;;;;5091833;28;20185;-75
2021/12/17 03:39:11;;;;;;;20.20;19.23;;;;;;;;;;5091473;28;20695;-74
2021/12/17 03:41:40;;;;;;;19.67;18.67;;;;;;;;;;5091493;28;20284;-74
2021/12/17 03:44:08;;;;;;;20.37;19.07;;;;;;;;;;5095378;28;20197;-76
2021/12/17 03:46:35;;;;;;;16.83;16.07;;;;;;;;;;5095179;28;20190;-75
2021/12/17 03:49:03;;;;;;;18.20;17.30;;;;;;;;;;5095338;28;20198;-74
2021/12/17 03:51:29;;;;;;;18.30;17.40;;;;;;;;;;5095070;28;20190;-75
2021/12/17 03:53:59;;;;;;;19.63;18.63;;;;;;;;;;5095288;28;20231;-74
2021/12/17 03:56:26;;;;;;;20.80;19.70;;;;;;;;;;5095247;28;20222;-75
2021/12/17 03:58:57;;;;;;;20.20;19.30;;;;;;;;;;5094807;28;20256;-75
2021/12/17 04:01:25;;;;;;;19.97;19.07;;;;;;;;;;5095207;28;20268;-75
2021/12/17 04:03:52;;;;;;;21.63;20.63;;;;;;;;;;5095108;28;20569;-75
2021/12/17 04:06:19;;;;;;;22.90;21.60;;;;;;;;;;5094697;28;20234;-74
2021/12/17 04:08:45;;;;;;;19.47;18.77;;;;;;;;;;5095037;28;20225;-74
2021/12/17 04:11:18;;;;;;;20.53;19.53;;;;;;;;;;5094645;28;20243;-75
2021/12/17 04:13:51;;;;;;;20.57;19.57;;;;;;;;;;5094671;28;20197;-75
2021/12/17 04:16:23;;;;;;;21.73;20.47;;;;;;;;;;5094899;28;20597;-74
2021/12/17 04:18:50;;;;;;;21.77;20.67;;;;;;;;;;5094802;28;20297;-75
2021/12/17 04:21:17;;;;;;;20.73;19.73;;;;;;;;;;5094850;28;20276;-75
2021/12/17 04:23:44;;;;;;;18.93;18.03;;;;;;;;;;5094804;28;20193;-75
2021/12/17 04:26:11;;;;;;;20.13;19.10;;;;;;;;;;5094757;28;20283;-74
2021/12/17 04:28:43;;;;;;;22.00;20.73;;;;;;;;;;5094631;28;20240;-74
2021/12/17 04:31:10;;;;;;;22.87;21.47;;;;;;;;;;5094375;28;20193;-75
2021/12/17 04:33:39;;;;;;;22.23;21.03;;;;;;;;;;5094185;28;20228;-74
2021/12/17 04:36:06;;;;;;;20.33;19.23;;;;;;;;;;5094064;28;20241;-74
2021/12/17 04:38:33;;;;;;;21.23;20.03;;;;;;;;;;5094012;28;20228;-74
2021/12/17 04:41:29;;;;;;;20.83;19.70;;;;;;;;;;5094398;28;20256;-75
2021/12/17 04:43:57;;;;;;;20.63;19.43;;;;;;;;;;5093921;28;20190;-75
2021/12/17 04:46:31;;;;;;;21.03;19.83;;;;;;;;;;5094052;28;20190;-75
2021/12/17 04:57:28;;;;;;;19.90;18.77;;;;;;;;;;5094475;28;20651;-73
2021/12/17 04:59:57;;;;;;;19.80;18.67;;;;;;;;;;5093716;28;20252;-75
2021/12/17 05:02:24;;;;;;;20.57;19.37;;;;;;;;;;5093709;28;20252;-74
2021/12/17 05:04:53;;;;;;;19.93;18.83;;;;;;;;;;5093896;28;20588;-74
2021/12/17 05:07:22;;;;;;;35.77;20.37;;;;;;;;;;5093843;28;20202;-75
2021/12/17 05:09:55;;;;;;;21.83;20.33;;;;;;;;;;5093516;28;20201;-77
2021/12/17 05:20:45;;;;;;;21.53;20.33;;;;;;;;;;5093982;28;20231;-76
2021/12/17 05:23:11;;;;;;;22.10;20.87;;;;;;;;;;5093297;28;20637;-74
2021/12/17 05:25:38;;;;;;;22.47;21.27;;;;;;;;;;5093547;28;20247;-74
2021/12/17 05:28:05;;;;;;;23.17;21.97;;;;;;;;;;5093199;28;20225;-74
2021/12/17 05:30:33;;;;;;;22.30;21.10;;;;;;;;;;5093108;28;20198;-74
2021/12/17 05:33:01;;;;;;;23.97;22.67;;;;;;;;;;5093118;28;20233;-74
2021/12/17 05:35:28;;;;;;;24.27;22.97;;;;;;;;;;5093021;28;20225;-74
2021/12/17 05:37:56;;;;;;;23.37;21.97;;;;;;;;;;5093292;28;20274;-74
2021/12/17 05:40:22;;;;;;;24.00;22.60;;;;;;;;;;5093299;28;20225;-76
2021/12/17 05:42:54;;;;;;;22.90;21.30;;;;;;;;;;5094012;28;20193;-75
2021/12/17 05:45:32;;;;;;;21.23;20.23;;;;;;;;;;5093200;28;20273;-74
2021/12/17 05:47:58;;;;;;;21.40;20.20;;;;;;;;;;5093157;28;20186;-75
2021/12/17 05:50:25;;;;;;;20.97;19.77;;;;;;;;;;5093103;28;20194;-74
2021/12/17 05:52:52;;;;;;;20.97;19.97;;;;;;;;;;5092674;28;20735;-76
2021/12/17 05:55:20;;;;;;;25.93;24.63;;;;;;;;;;5093043;28;20193;-75
2021/12/17 05:57:46;;;;;;;23.13;21.93;;;;;;;;;;5092691;28;20280;-78
2021/12/17 06:00:14;;;;;;;22.83;21.73;;;;;;;;;;5092832;28;20261;-74
2021/12/17 06:02:41;;;;;;;23.20;22.07;;;;;;;;;;5092881;28;20193;-75
2021/12/17 06:05:07;;;;;;;23.17;21.97;;;;;;;;;;5092423;28;20617;-75
2021/12/17 06:07:34;;;;;;;22.73;21.60;;;;;;;;;;5092807;28;20225;-76
2021/12/17 06:10:03;;;;;;;21.07;20.17;;;;;;;;;;5092752;28;20284;-75
2021/12/17 06:12:32;;;;;;;21.43;20.23;;;;;;;;;;5092729;28;20292;-75
2021/12/17 06:14:58;;;;;;;20.90;19.60;;;;;;;;;;5092441;28;20226;-74
2021/12/17 06:17:25;;;;;;;23.03;21.67;;;;;;;;;;5092273;28;20624;-76
2021/12/17 06:19:52;;;;;;;24.27;22.87;;;;;;;;;;5092275;28;20283;-74
2021/12/17 06:22:18;;;;;;;22.00;20.80;;;;;;;;;;5092626;28;20247;-74
2021/12/17 06:24:45;;;;;;;21.50;20.20;;;;;;;;;;5092582;28;20619;-75
2021/12/17 06:27:13;;;;;;;24.03;22.63;;;;;;;;;;5092578;28;20643;-75
2021/12/17 06:29:41;;;;;;;22.67;21.37;;;;;;;;;;5092488;28;20200;-76
2021/12/17 06:32:08;;;;;;;26.17;24.87;;;;;;;;;;5092491;28;20742;-75
2021/12/17 06:34:35;;;;;;;25.40;24.10;;;;;;;;;;5092387;28;20384;-74
2021/12/17 06:37:02;;;;;;;26.50;25.10;;;;;;;;;;5092155;28;20229;-74
2021/12/17 06:39:29;;;;;;;25.10;23.70;;;;;;;;;;5092929;28;20229;-75
2021/12/17 06:41:56;;;;;;;26.23;24.73;;;;;;;;;;5092102;28;20641;-74
2021/12/17 06:44:25;;;;;;;27.70;26.10;;;;;;;;;;5092412;28;20230;-76
2021/12/17 06:46:59;;;;;;;24.63;23.23;;;;;;;;;;5091984;28;20194;-75
2021/12/17 06:49:31;;;;;;;29.50;27.70;;;;;;;;;;5092082;28;20226;-74
2021/12/17 06:54:58;;;;;;;28.03;26.33;;;;;;;;;;5092089;28;20563;-75
2021/12/17 07:00:19;;;;;;;33.50;31.50;;;;;;;;;;5091874;28;20209;-75
2021/12/17 07:11:20;;;;;;;31.77;29.77;;;;;;;;;;4988729;28;20247;-74
2021/12/17 07:22:05;;;;;;;24.70;23.30;;;;;;;;;;5014094;28;20608;-75
2021/12/17 07:32:42;;;;;;;24.40;23.10;;;;;;;;;;4981889;28;20388;-75
2021/12/17 07:35:36;;;;;;;24.13;22.83;;;;;;;;;;5013216;28;20232;-76
2021/12/17 07:40:46;;;;;;;26.60;24.97;;;;;;;;;;5091661;28;20225;-75
2021/12/17 07:43:22;;;;;;;26.53;24.77;;;;;;;;;;5095262;28;20728;-75
2021/12/17 07:45:49;;;;;;;25.87;24.57;;;;;;;;;;5095577;28;20219;-75
2021/12/17 07:48:16;;;;;;;27.63;26.10;;;;;;;;;;5095163;28;20193;-77
2021/12/17 07:50:44;;;;;;;24.53;23.10;;;;;;;;;;5095379;28;20202;-76
2021/12/17 07:53:11;;;;;;;25.30;24.00;;;;;;;;;;5095019;28;20259;-77
2021/12/17 07:55:37;;;;;;;23.33;22.03;;;;;;;;;;5094986;28;20236;-75
2021/12/17 07:58:04;;;;;;;25.17;23.87;;;;;;;;;;5095091;28;20221;-76
2021/12/17 08:00:31;;;;;;;27.53;25.83;;;;;;;;;;5094811;28;20263;-74
2021/12/17 08:02:58;;;;;;;25.47;24.17;;;;;;;;;;5095156;28;20254;-76
2021/12/17 08:05:25;;;;;;;23.70;22.50;;;;;;;;;;5095112;28;20281;-77
2021/12/17 08:07:53;;;;;;;26.53;25.03;;;;;;;;;;5095072;28;20202;-75
2021/12/17 08:10:19;;;;;;;32.07;30.17;;;;;;;;;;5094693;28;20225;-76
2021/12/17 08:12:46;;;;;;;35.07;32.97;;;;;;;;;;5094947;28;20221;-76
2021/12/17 08:15:14;;;;;;;35.07;32.87;;;;;;;;;;5094859;28;20566;-75
2021/12/17 08:18:05;;;;;;;25.50;24.00;;;;;;;;;;5094677;28;20193;-74
2021/12/17 08:26:09;;;;;;;35.60;33.80;;;;;;;;;;5095117;28;20275;-76
2021/12/17 08:31:16;;;;;;;24.43;23.03;;;;;;;;;;5094515;28;20306;-74
2021/12/17 08:33:43;;;;;;;27.63;26.00;;;;;;;;;;5094624;28;20608;-74
2021/12/17 08:36:10;;;;;;;26.87;25.37;;;;;;;;;;5094145;28;20229;-75
2021/12/17 08:38:38;;;;;;;29.30;27.60;;;;;;;;;;5094115;28;20196;-75
2021/12/17 08:41:05;;;;;;;29.60;27.90;;;;;;;;;;5094050;28;20313;-77
2021/12/17 08:43:31;;;;;;;26.10;24.50;;;;;;;;;;5094097;28;20675;-77
2021/12/17 08:45:58;;;;;;;33.23;31.27;;;;;;;;;;5094079;28;20558;-75
2021/12/17 08:48:25;;;;;;;35.60;33.40;;;;;;;;;;5094016;28;20290;-75
2021/12/17 08:50:52;;;;;;;30.30;28.60;;;;;;;;;;5094316;28;20285;-76
2021/12/17 08:53:18;;;;;;;29.17;27.63;;;;;;;;;;5093913;28;20734;-76
2021/12/17 08:55:47;;;;;;;30.27;28.67;;;;;;;;;;5094159;28;20194;-77
2021/12/17 08:58:14;;;;;;;32.33;30.53;;;;;;;;;;5094051;28;20282;-76
2021/12/17 09:00:41;;;;;;;31.70;29.90;;;;;;;;;;5093640;28;20261;-78
2021/12/17 09:03:09;;;;;;;26.13;24.63;;;;;;;;;;5093994;28;20190;-77
2021/12/17 09:05:37;;;;;;;31.00;29.20;;;;;;;;;;5093814;28;20189;-79
2021/12/17 09:08:04;;;;;;;31.33;29.43;;;;;;;;;;5093885;28;20190;-78
2021/12/17 09:10:31;;;;;;;29.33;27.73;;;;;;;;;;5093601;28;20271;-77
2021/12/17 09:12:59;;;;;;;29.33;27.63;;;;;;;;;;5093838;28;20190;-77
2021/12/17 09:15:27;;;;;;;31.93;30.17;;;;;;;;;;5093481;28;20727;-78
2021/12/17 09:17:53;;;;;;;29.07;27.47;;;;;;;;;;5093771;28;20271;-80
2021/12/17 09:20:20;;;;;;;28.30;26.70;;;;;;;;;;5093258;28;20316;-78
2021/12/17 09:22:47;;;;;;;25.93;24.53;;;;;;;;;;5093640;28;20232;-82
2021/12/17 09:25:14;;;;;;;23.93;22.67;;;;;;;;;;5093288;28;20285;-76
2021/12/17 09:27:41;;;;;;;24.77;23.37;;;;;;;;;;5093601;28;20198;-77
2021/12/17 09:30:11;;;;;;;24.73;23.30;;;;;;;;;;5094410;28;20229;-78
2021/12/17 09:32:39;;;;;;;22.97;21.77;;;;;;;;;;5093475;28;20194;-77
2021/12/17 09:35:06;;;;;;;20.90;19.90;;;;;;;;;;5093024;28;20316;-78
2021/12/17 09:37:33;;;;;;;23.23;21.90;;;;;;;;;;5093060;28;20194;-76
2021/12/17 09:39:59;;;;;;;24.33;23.13;;;;;;;;;;5092571;28;20229;-81
2021/12/17 09:42:26;;;;;;;26.80;25.30;;;;;;;;;;5093929;28;20656;-78
2021/12/17 09:44:53;;;;;;;27.27;25.77;;;;;;;;;;5092835;28;20280;-79
2021/12/17 09:47:21;;;;;;;26.20;24.80;;;;;;;;;;5092923;28;20197;-76
2021/12/17 09:49:48;;;;;;;29.43;27.40;;;;;;;;;;5093097;28;20194;-78
2021/12/17 09:52:14;;;;;;;25.03;23.63;;;;;;;;;;5092820;28;20246;-77
2021/12/17 09:54:41;;;;;;;25.80;24.40;;;;;;;;;;5093154;28;20281;-77
2021/12/17 09:57:08;;;;;;;22.93;21.83;;;;;;;;;;5093021;28;20266;-78
2021/12/17 09:59:35;;;;;;;23.37;22.27;;;;;;;;;;5092947;28;20275;-79
2021/12/17 10:02:02;;;;;;;22.87;21.77;;;;;;;;;;5092929;28;20201;-79
2021/12/17 10:04:31;;;;;;;23.83;22.63;;;;;;;;;;5092957;28;20201;-79
2021/12/17 10:07:19;;;;;;;23.30;22.20;;;;;;;;;;5092538;28;20608;-79
2021/12/17 10:09:46;;;;;;;23.17;21.87;;;;;;;;;;5092572;28;20193;-79
2021/12/17 10:12:13;;;;;;;22.07;21.07;;;;;;;;;;5092453;28;20267;-79
2021/12/17 10:14:41;;;;;;;24.10;22.83;;;;;;;;;;5092477;28;20205;-78
2021/12/17 10:17:09;;;;;;;23.80;22.50;;;;;;;;;;5092463;28;20201;-79
2021/12/17 10:19:44;;;;;;;23.50;22.40;;;;;;;;;;5092299;28;20261;-79
2021/12/17 10:22:11;;;;;;;23.40;22.30;;;;;;;;;;5092406;28;20204;-78
2021/12/17 10:24:38;;;;;;;23.10;21.97;;;;;;;;;;5092386;28;20193;-78
2021/12/17 10:27:19;;;;;;;26.10;24.40;;;;;;;;;;5092605;28;20190;-78
2021/12/17 10:29:46;;;;;;;25.47;23.97;;;;;;;;;;5092629;28;20189;-78
2021/12/17 10:32:16;;;;;;;22.93;21.83;;;;;;;;;;5092255;28;20236;-80
2021/12/17 10:34:58;;;;;;;22.93;21.63;;;;;;;;;;5092164;28;20299;-77
2021/12/17 10:37:31;;;;;;;24.43;22.93;;;;;;;;;;5092533;28;20277;-79
2021/12/17 10:39:58;;;;;;;23.97;22.70;;;;;;;;;;5092214;28;20763;-78
2021/12/17 10:42:30;;;;;;;27.60;25.90;;;;;;;;;;5092162;28;20193;-79
2021/12/17 10:45:00;;;;;;;22.90;21.80;;;;;;;;;;5092118;28;20201;-78
2021/12/17 10:47:33;;;;;;;23.53;22.10;;;;;;;;;;5092058;28;20190;-76
2021/12/17 10:50:02;;;;;;;23.97;22.77;;;;;;;;;;5092398;28;20281;-77
2021/12/17 10:52:36;;;;;;;24.93;23.63;;;;;;;;;;5095584;28;20203;-78
2021/12/17 10:55:10;;;;;;;24.03;22.73;;;;;;;;;;5096204;28;20277;-77
2021/12/17 10:57:36;;;;;;;24.40;22.90;;;;;;;;;;5096181;28;20193;-78
2021/12/17 11:00:04;;;;;;;21.73;20.63;;;;;;;;;;5096040;28;20278;-79
2021/12/17 11:02:33;;;;;;;21.90;20.73;;;;;;;;;;5096381;28;20696;-77
2021/12/17 11:05:10;;;;;;;21.47;20.47;;;;;;;;;;5096268;28;20250;-78
2021/12/17 11:07:37;;;;;;;22.53;21.43;;;;;;;;;;5095999;28;20263;-80
2021/12/17 11:10:05;;;;;;;23.73;22.60;;;;;;;;;;5095811;28;20204;-78
2021/12/17 11:12:33;;;;;;;27.33;25.83;;;;;;;;;;5095956;28;20288;-77
2021/12/17 11:15:09;;;;;;;26.13;24.73;;;;;;;;;;5096150;28;20269;-77
2021/12/17 11:17:36;;;;;;;25.80;24.53;;;;;;;;;;5096032;28;20189;-77
2021/12/17 11:20:05;;;;;;;22.70;21.57;;;;;;;;;;5095665;28;20295;-77
2021/12/17 11:22:32;;;;;;;23.30;22.10;;;;;;;;;;5095676;28;20198;-76
2021/12/17 11:25:01;;;;;;;23.00;21.90;;;;;;;;;;5095967;28;20613;-77
2021/12/17 11:27:28;;;;;;;24.53;23.33;;;;;;;;;;5095837;28;20200;-77
2021/12/17 11:29:54;;;;;;;24.77;23.57;;;;;;;;;;5095902;28;20201;-79
2021/12/17 11:32:21;;;;;;;24.20;22.90;;;;;;;;;;5095507;28;20194;-77
2021/12/17 11:34:48;;;;;;;23.13;22.03;;;;;;;;;;5095392;28;20229;-77
2021/12/17 11:37:17;;;;;;;23.40;22.20;;;;;;;;;;5095424;28;20194;-75
2021/12/17 11:39:47;;;;;;;23.37;22.17;;;;;;;;;;5095545;28;20234;-75
2021/12/17 11:42:25;;;;;;;23.83;22.63;;;;;;;;;;5095300;28;20668;-76
2021/12/17 11:44:54;;;;;;;23.77;22.57;;;;;;;;;;5095382;28;20193;-77
2021/12/17 11:47:21;;;;;;;22.97;21.87;;;;;;;;;;5095551;28;20193;-75
2021/12/17 11:49:50;;;;;;;23.17;22.07;;;;;;;;;;5095423;28;20193;-77
2021/12/17 11:52:38;;;;;;;24.23;23.13;;;;;;;;;;5095134;28;20735;-77
2021/12/17 11:55:19;;;;;;;17.90;17.10;;;;;;;;;;5095366;28;20194;-76
2021/12/17 11:57:46;;;;;;;21.87;20.87;;;;;;;;;;5094861;28;20276;-78
2021/12/17 12:00:14;;;;;;;21.30;20.30;;;;;;;;;;5095139;28;20261;-75
2021/12/17 12:02:47;;;;;;;21.40;20.40;;;;;;;;;;5094218;28;20198;-77
2021/12/17 12:05:33;;;;;;;21.80;20.83;;;;;;;;;;5094891;28;20220;-76
2021/12/17 12:08:24;;;;;;;19.47;18.67;;;;;;;;;;5095083;28;20280;-77
2021/12/17 12:11:03;;;;;;;19.73;18.90;;;;;;;;;;5095249;28;20243;-77
2021/12/17 12:13:34;;;;;;;21.20;20.20;;;;;;;;;;5094757;28;20572;-78
2021/12/17 12:16:02;;;;;;;20.87;19.87;;;;;;;;;;5094989;28;20573;-75
2021/12/17 12:18:38;;;;;;;20.13;19.13;;;;;;;;;;5094611;28;20285;-78
2021/12/17 12:21:05;;;;;;;19.50;18.60;;;;;;;;;;5094589;28;20672;-75
2021/12/17 12:24:04;;;;;;;21.80;20.63;;;;;;;;;;5094806;28;20194;-77
2021/12/17 12:26:37;;;;;;;21.80;20.80;;;;;;;;;;5094790;28;20186;-77
2021/12/17 12:29:06;;;;;;;21.53;20.50;;;;;;;;;;5094885;28;20221;-77
2021/12/17 12:31:41;;;;;;;19.97;18.97;;;;;;;;;;5094656;28;20572;-75
2021/12/17 12:34:10;;;;;;;19.80;18.80;;;;;;;;;;5094166;28;20241;-77
2021/12/17 12:36:46;;;;;;;20.47;19.37;;;;;;;;;;5094281;28;20182;-78
2021/12/17 12:39:14;;;;;;;21.83;20.53;;;;;;;;;;5094585;28;20597;-76
2021/12/17 12:41:44;;;;;;;18.77;17.87;;;;;;;;;;5094378;28;20600;-80
2021/12/17 12:44:11;;;;;;;21.47;20.23;;;;;;;;;;5094496;28;20198;-75
2021/12/17 12:46:54;;;;;;;19.10;18.20;;;;;;;;;;5094038;28;20200;-76
2021/12/17 12:49:39;;;;;;;19.67;18.67;;;;;;;;;;5094025;28;20194;-76
2021/12/17 12:52:16;;;;;;;17.30;16.60;;;;;;;;;;5094277;28;20205;-77
2021/12/17 12:54:48;;;;;;;18.80;18.00;;;;;;;;;;5093876;28;20189;-76
2021/12/17 12:57:23;;;;;;;18.83;17.87;;;;;;;;;;5093895;28;20662;-76
2021/12/17 12:59:51;;;;;;;19.27;18.37;;;;;;;;;;5093795;28;20221;-80
2021/12/17 13:02:18;;;;;;;20.60;19.50;;;;;;;;;;5094009;28;20236;-75
2021/12/17 13:04:46;;;;;;;20.23;19.23;;;;;;;;;;5093763;28;20194;-76
2021/12/17 13:07:14;;;;;;;21.90;20.80;;;;;;;;;;5094060;28;20194;-76
2021/12/17 13:09:42;;;;;;;21.00;20.00;;;;;;;;;;5093602;28;20205;-79
2021/12/17 13:12:09;;;;;;;21.10;20.10;;;;;;;;;;5093546;28;20190;-75
2021/12/17 13:14:44;;;;;;;20.40;19.40;;;;;;;;;;5092528;28;20229;-76
2021/12/17 13:17:39;;;;;;;18.73;17.80;;;;;;;;;;5093499;28;20197;-76
2021/12/17 13:22:56;;;;;;;20.10;19.20;;;;;;;;;;5059608;28;20216;-76
2021/12/17 13:25:26;;;;;;;21.00;19.60;;;;;;;;;;5093701;28;20284;-77
2021/12/17 13:27:53;;;;;;;21.73;20.53;;;;;;;;;;5093673;28;20717;-75
2021/12/17 13:30:25;;;;;;;19.97;19.07;;;;;;;;;;5093144;28;20216;-77
2021/12/17 13:32:52;;;;;;;19.57;18.67;;;;;;;;;;5093259;28;20572;-75
2021/12/17 13:35:19;;;;;;;20.43;19.40;;;;;;;;;;5093002;28;20233;-75
2021/12/17 13:37:46;;;;;;;21.87;20.67;;;;;;;;;;5093370;28;20198;-76
2021/12/17 13:40:13;;;;;;;23.60;22.00;;;;;;;;;;5093160;28;20680;-76
2021/12/17 13:42:42;;;;;;;21.67;20.67;;;;;;;;;;5093287;28;20235;-78
2021/12/17 13:45:10;;;;;;;26.33;24.83;;;;;;;;;;5093282;28;20200;-76
2021/12/17 13:47:40;;;;;;;24.77;23.53;;;;;;;;;;5093281;28;20243;-77
2021/12/17 13:50:08;;;;;;;26.33;24.90;;;;;;;;;;5093192;28;20289;-77
2021/12/17 13:52:36;;;;;;;33.13;31.33;;;;;;;;;;5093234;28;20198;-76
2021/12/17 13:55:05;;;;;;;37.53;35.43;;;;;;;;;;5093110;28;20196;-76
2021/12/17 13:57:32;;;;;;;33.20;31.40;;;;;;;;;;5093080;28;20190;-75
2021/12/17 14:00:04;;;;;;;35.07;33.17;;;;;;;;;;5092662;28;20194;-76
2021/12/17 14:02:33;;;;;;;35.97;33.87;;;;;;;;;;5092650;28;20711;-77
2021/12/17 14:05:04;;;;;;;35.53;33.53;;;;;;;;;;5092636;28;20199;-77
2021/12/17 14:07:32;;;;;;;37.33;35.07;;;;;;;;;;5092696;28;20676;-76
2021/12/17 14:10:00;;;;;;;36.70;34.50;;;;;;;;;;5092871;28;20244;-76
2021/12/17 14:12:30;;;;;;;36.67;34.47;;;;;;;;;;5092951;28;20225;-76
2021/12/17 14:14:57;;;;;;;35.97;33.77;;;;;;;;;;5094187;28;20193;-75
2021/12/17 14:17:24;;;;;;;32.27;30.37;;;;;;;;;;5092776;28;20222;-77
2021/12/17 14:19:53;;;;;;;37.27;35.07;;;;;;;;;;5092727;28;20202;-76
2021/12/17 14:22:28;;;;;;;37.47;35.27;;;;;;;;;;5092312;28;20275;-75
2021/12/17 14:24:57;;;;;;;37.07;34.97;;;;;;;;;;5092374;28;20604;-75
2021/12/17 14:27:42;;;;;;;35.97;33.87;;;;;;;;;;5092256;28;20205;-77
2021/12/17 14:30:10;;;;;;;35.30;33.30;;;;;;;;;;5092682;28;20534;-78
2021/12/17 14:32:40;;;;;;;33.97;32.07;;;;;;;;;;5092773;28;20351;-77
2021/12/17 14:35:07;;;;;;;34.33;32.43;;;;;;;;;;5092169;28;20287;-77
2021/12/17 14:37:48;;;;;;;34.67;32.73;;;;;;;;;;5092549;28;20247;-76
2021/12/17 14:40:31;;;;;;;39.30;37.10;;;;;;;;;;5092240;28;20190;-76
2021/12/17 14:42:58;;;;;;;33.70;31.70;;;;;;;;;;5092141;28;20220;-77
2021/12/17 14:45:33;;;;;;;40.40;38.10;;;;;;;;;;5092366;28;20194;-78
2021/12/17 14:48:14;;;;;;;40.83;38.53;;;;;;;;;;5092507;28;20185;-77
2021/12/17 15:02:02;;;;;;;44.70;41.80;;;;;;;;;;5065523;28;20200;-76
2021/12/17 15:04:30;;;;;;;34.33;32.23;;;;;;;;;;5109838;28;20672;-78
2021/12/17 15:06:56;;;;;;;38.37;35.97;;;;;;;;;;5110077;28;20197;-76
2021/12/17 15:09:23;;;;;;;38.07;35.87;;;;;;;;;;5109725;28;20197;-76
2021/12/17 15:11:58;;;;;;;47.40;44.70;;;;;;;;;;5109680;28;20197;-75
2021/12/17 15:14:25;;;;;;;40.73;38.43;;;;;;;;;;5109899;28;20212;-75
2021/12/17 15:16:51;;;;;;;40.10;37.87;;;;;;;;;;5109581;28;20197;-75
2021/12/17 15:19:18;;;;;;;37.27;35.07;;;;;;;;;;5109498;28;20233;-76
2021/12/17 15:21:45;;;;;;;35.17;33.07;;;;;;;;;;5109763;28;20322;-75
2021/12/17 15:24:11;;;;;;;36.20;34.13;;;;;;;;;;5109769;28;20204;-78
2021/12/17 15:26:39;;;;;;;38.27;36.27;;;;;;;;;;5109344;28;20280;-76
2021/12/17 15:29:07;;;;;;;37.13;35.00;;;;;;;;;;5109696;28;20246;-78
2021/12/17 15:31:34;;;;;;;39.60;37.00;;;;;;;;;;5109328;28;20225;-75
2021/12/17 15:34:00;;;;;;;39.43;37.13;;;;;;;;;;5109165;28;20687;-76
2021/12/17 15:36:27;;;;;;;39.47;37.27;;;;;;;;;;5109584;28;20250;-75
2021/12/17 15:38:54;;;;;;;40.87;38.27;;;;;;;;;;5109457;28;20565;-75
2021/12/17 15:41:20;;;;;;;41.30;39.00;;;;;;;;;;5109405;28;20200;-75
2021/12/17 15:43:47;;;;;;;45.47;42.87;;;;;;;;;;5109084;28;20225;-77
2021/12/17 15:46:15;;;;;;;45.80;43.40;;;;;;;;;;5109329;28;20201;-76
2021/12/17 15:48:42;;;;;;;43.40;41.10;;;;;;;;;;5109302;28;20262;-76
2021/12/17 15:51:09;;;;;;;41.43;39.23;;;;;;;;;;5108944;28;20193;-74
2021/12/17 15:53:35;;;;;;;37.57;35.37;;;;;;;;;;5109203;28;20193;-78
2021/12/17 15:56:02;;;;;;;36.80;34.70;;;;;;;;;;5108566;28;20771;-76
2021/12/17 15:58:29;;;;;;;41.20;38.67;;;;;;;;;;5109077;28;20276;-75
2021/12/17 16:00:56;;;;;;;42.07;39.87;;;;;;;;;;5108697;28;20675;-78
2021/12/17 16:03:31;;;;;;;34.57;32.57;;;;;;;;;;5108717;28;20193;-74
2021/12/17 16:05:58;;;;;;;40.53;37.83;;;;;;;;;;5105521;28;20185;-75
2021/12/17 16:08:24;;;;;;;45.77;42.97;;;;;;;;;;5095090;28;20200;-75
2021/12/17 16:21:45;;;;;;;37.10;34.50;;;;;;;;;;5094719;28;20182;-75
2021/12/17 16:24:12;;;;;;;37.53;34.93;;;;;;;;;;5095036;28;20197;-76
2021/12/17 16:26:38;;;;;;;39.40;36.70;;;;;;;;;;5094686;28;20194;-76
2021/12/17 16:29:08;;;;;;;34.13;31.83;;;;;;;;;;5094584;28;20672;-77
2021/12/17 16:31:34;;;;;;;33.53;31.13;;;;;;;;;;5094591;28;20280;-77
2021/12/17 16:34:02;;;;;;;37.13;34.53;;;;;;;;;;5094525;28;20259;-75
2021/12/17 16:36:31;;;;;;;35.43;32.93;;;;;;;;;;5094465;28;20699;-76
2021/12/17 16:38:58;;;;;;;30.47;28.37;;;;;;;;;;5094450;28;20194;-77
2021/12/17 16:41:25;;;;;;;30.50;28.20;;;;;;;;;;5094793;28;20553;-77
2021/12/17 16:43:58;;;;;;;32.80;30.60;;;;;;;;;;5094369;28;20236;-76
2021/12/17 16:47:01;;;;;;;33.97;31.67;;;;;;;;;;5094778;28;20225;-76
2021/12/17 16:49:14;;;;;;;31.87;29.77;;;;;;;;;;5094386;28;20200;-77
2021/12/17 16:51:42;;;;;;;34.03;31.63;;;;;;;;;;5095729;28;20741;-79
2021/12/17 16:54:09;;;;;;;34.47;31.60;;;;;;;;;;5094270;28;20544;-76
2021/12/17 16:56:36;;;;;;;34.60;32.20;;;;;;;;;;5094985;28;20305;-79
2021/12/17 16:59:03;;;;;;;30.50;28.50;;;;;;;;;;5094756;28;20202;-77
2021/12/17 17:01:33;;;;;;;33.23;30.97;;;;;;;;;;5094471;28;20190;-79
2021/12/17 17:03:59;;;;;;;36.93;34.43;;;;;;;;;;5094249;28;20251;-78